sensor_id;sensor_type;location;lat;lon;timestamp;P1;durP1;ratioP1;P2;durP2;ratioP2
64018;SDS011;66942;52.138;5.216;2023-02-10T00:01:24;47.8;;;42.7;;
64018;SDS011;66942;52.138;5.216;2023-02-10T00:03:03;47.2;;;41.9;;
64018;SDS011;66942;52.138;5.216;2023-02-10T00:04:39;58.4;;;50.0;;
64018;SDS011;66942;52.138;5.216;2023-02-10T00:06:16;58.6;;;48.1;;
64018;SDS011;66942;52.138;5.216;2023-02-10T00:09:30;59.2;;;47.6;;
64018;SDS011;66942;52.138;5.216;2023-02-10T00:11:06;64.41;;;50.2;;
64018;SDS011;66942;52.138;5.216;2023-02-10T00:12:46;54.3;;;44.8;;
64018;SDS011;66942;52.138;5.216;2023-02-10T00:16:00;72.3;;;54.0;;
64018;SDS011;66942;52.138;5.216;2023-02-10T00:17:37;51.7;;;46.0;;
64018;SDS011;66942;52.138;5.216;2023-02-10T00:19:14;50.0;;;43.7;;
64018;SDS011;66942;52.138;5.216;2023-02-10T00:20:50;50.4;;;44.9;;
64018;SDS011;66942;52.138;5.216;2023-02-10T00:24:03;56.6;;;44.7;;
64018;SDS011;66942;52.138;5.216;2023-02-10T00:25:40;48.6;;;41.1;;
64018;SDS011;66942;52.138;5.216;2023-02-10T00:27:23;54.9;;;43.1;;
64018;SDS011;66942;52.138;5.216;2023-02-10T00:30:36;42.3;;;37.71;;
64018;SDS011;66942;52.138;5.216;2023-02-10T00:32:13;43.6;;;39.0;;
64018;SDS011;66942;52.138;5.216;2023-02-10T00:33:49;44.1;;;38.1;;
64018;SDS011;66942;52.138;5.216;2023-02-10T00:35:25;49.1;;;39.81;;
64018;SDS011;66942;52.138;5.216;2023-02-10T00:38:38;51.1;;;42.0;;
64018;SDS011;66942;52.138;5.216;2023-02-10T00:40:16;41.4;;;37.0;;
64018;SDS011;66942;52.138;5.216;2023-02-10T00:41:53;43.6;;;37.1;;
64018;SDS011;66942;52.138;5.216;2023-02-10T00:45:06;38.1;;;34.1;;
64018;SDS011;66942;52.138;5.216;2023-02-10T00:46:43;36.21;;;32.5;;
64018;SDS011;66942;52.138;5.216;2023-02-10T00:48:20;43.8;;;37.71;;
64018;SDS011;66942;52.138;5.216;2023-02-10T00:51:32;38.81;;;34.6;;
64018;SDS011;66942;52.138;5.216;2023-02-10T00:53:09;37.1;;;33.1;;
64018;SDS011;66942;52.138;5.216;2023-02-10T00:54:45;36.9;;;33.0;;
64018;SDS011;66942;52.138;5.216;2023-02-10T00:56:21;38.1;;;31.9;;
64018;SDS011;66942;52.138;5.216;2023-02-10T00:59:34;36.5;;;32.6;;
64018;SDS011;66942;52.138;5.216;2023-02-10T01:01:10;31.1;;;27.9;;
64018;SDS011;66942;52.138;5.216;2023-02-10T01:02:47;32.8;;;29.3;;
64018;SDS011;66942;52.138;5.216;2023-02-10T01:05:59;37.5;;;33.6;;
64018;SDS011;66942;52.138;5.216;2023-02-10T01:07:35;47.7;;;37.31;;
64018;SDS011;66942;52.138;5.216;2023-02-10T01:09:12;34.6;;;30.4;;
64018;SDS011;66942;52.138;5.216;2023-02-10T01:12:24;34.21;;;30.3;;
64018;SDS011;66942;52.138;5.216;2023-02-10T01:14:00;36.81;;;32.8;;
64018;SDS011;66942;52.138;5.216;2023-02-10T01:15:40;60.8;;;42.4;;
64018;SDS011;66942;52.138;5.216;2023-02-10T01:17:17;41.9;;;36.21;;
64018;SDS011;66942;52.138;5.216;2023-02-10T01:20:30;39.5;;;31.8;;
64018;SDS011;66942;52.138;5.216;2023-02-10T01:22:07;37.6;;;32.6;;
64018;SDS011;66942;52.138;5.216;2023-02-10T01:23:43;33.1;;;29.6;;
64018;SDS011;66942;52.138;5.216;2023-02-10T01:26:56;45.0;;;34.5;;
64018;SDS011;66942;52.138;5.216;2023-02-10T01:28:33;30.1;;;26.7;;
64018;SDS011;66942;52.138;5.216;2023-02-10T01:30:11;34.5;;;29.3;;
64018;SDS011;66942;52.138;5.216;2023-02-10T01:33:24;34.5;;;29.3;;
64018;SDS011;66942;52.138;5.216;2023-02-10T01:35:00;38.71;;;30.6;;
64018;SDS011;66942;52.138;5.216;2023-02-10T01:36:36;32.1;;;28.3;;
64018;SDS011;66942;52.138;5.216;2023-02-10T01:38:12;31.4;;;28.0;;
64018;SDS011;66942;52.138;5.216;2023-02-10T01:41:25;34.21;;;30.5;;
64018;SDS011;66942;52.138;5.216;2023-02-10T01:43:04;30.6;;;27.1;;
64018;SDS011;66942;52.138;5.216;2023-02-10T01:45:26;39.0;;;33.71;;
64018;SDS011;66942;52.138;5.216;2023-02-10T01:47:07;41.6;;;32.0;;
64018;SDS011;66942;52.138;5.216;2023-02-10T01:48:43;33.21;;;27.7;;
64018;SDS011;66942;52.138;5.216;2023-02-10T01:52:02;31.2;;;27.5;;
64018;SDS011;66942;52.138;5.216;2023-02-10T01:53:42;44.6;;;33.8;;
64018;SDS011;66942;52.138;5.216;2023-02-10T01:55:21;43.8;;;34.81;;
64018;SDS011;66942;52.138;5.216;2023-02-10T01:57:00;44.0;;;34.9;;
64018;SDS011;66942;52.138;5.216;2023-02-10T02:00:15;42.5;;;34.0;;
64018;SDS011;66942;52.138;5.216;2023-02-10T02:01:51;32.9;;;27.2;;
64018;SDS011;66942;52.138;5.216;2023-02-10T02:03:27;30.1;;;26.8;;
64018;SDS011;66942;52.138;5.216;2023-02-10T02:06:43;32.5;;;29.0;;
64018;SDS011;66942;52.138;5.216;2023-02-10T02:08:21;29.7;;;26.6;;
64018;SDS011;66942;52.138;5.216;2023-02-10T02:10:00;27.3;;;24.3;;
64018;SDS011;66942;52.138;5.216;2023-02-10T02:11:43;27.3;;;24.5;;
64018;SDS011;66942;52.138;5.216;2023-02-10T02:15:26;29.6;;;24.9;;
64018;SDS011;66942;52.138;5.216;2023-02-10T02:17:11;35.5;;;29.0;;
64018;SDS011;66942;52.138;5.216;2023-02-10T02:18:59;35.81;;;29.7;;
64018;SDS011;66942;52.138;5.216;2023-02-10T02:20:55;31.3;;;24.8;;
64018;SDS011;66942;52.138;5.216;2023-02-10T02:24:31;24.3;;;21.8;;
64018;SDS011;66942;52.138;5.216;2023-02-10T02:26:55;22.3;;;20.0;;
64018;SDS011;66942;52.138;5.216;2023-02-10T02:29:21;25.2;;;22.6;;
64018;SDS011;66942;52.138;5.216;2023-02-10T02:31:48;26.5;;;23.7;;
64018;SDS011;66942;52.138;5.216;2023-02-10T02:33:34;23.7;;;21.2;;
64018;SDS011;66942;52.138;5.216;2023-02-10T02:35:17;37.6;;;29.4;;
64018;SDS011;66942;52.138;5.216;2023-02-10T02:37:00;35.71;;;28.9;;
64018;SDS011;66942;52.138;5.216;2023-02-10T02:40:19;38.1;;;30.3;;
64018;SDS011;66942;52.138;5.216;2023-02-10T02:41:59;38.1;;;31.0;;
64018;SDS011;66942;52.138;5.216;2023-02-10T02:43:50;31.4;;;26.9;;
64018;SDS011;66942;52.138;5.216;2023-02-10T02:45:26;30.7;;;26.7;;
64018;SDS011;66942;52.138;5.216;2023-02-10T02:47:17;26.0;;;23.0;;
64018;SDS011;66942;52.138;5.216;2023-02-10T02:50:50;32.5;;;28.0;;
64018;SDS011;66942;52.138;5.216;2023-02-10T02:52:38;32.9;;;28.1;;
64018;SDS011;66942;52.138;5.216;2023-02-10T02:54:29;32.21;;;27.8;;
64018;SDS011;66942;52.138;5.216;2023-02-10T02:56:18;38.1;;;30.1;;
64018;SDS011;66942;52.138;5.216;2023-02-10T02:58:06;37.4;;;30.6;;
64018;SDS011;66942;52.138;5.216;2023-02-10T02:59:52;27.1;;;22.1;;
64018;SDS011;66942;52.138;5.216;2023-02-10T03:03:18;27.9;;;25.0;;
64018;SDS011;66942;52.138;5.216;2023-02-10T03:04:55;26.3;;;21.9;;
64018;SDS011;66942;52.138;5.216;2023-02-10T03:06:32;25.2;;;22.0;;
64018;SDS011;66942;52.138;5.216;2023-02-10T03:08:08;26.8;;;23.6;;
64018;SDS011;66942;52.138;5.216;2023-02-10T03:11:20;34.71;;;26.5;;
64018;SDS011;66942;52.138;5.216;2023-02-10T03:12:58;36.81;;;29.3;;
64018;SDS011;66942;52.138;5.216;2023-02-10T03:14:34;34.6;;;28.6;;
64018;SDS011;66942;52.138;5.216;2023-02-10T03:17:46;29.5;;;26.4;;
64018;SDS011;66942;52.138;5.216;2023-02-10T03:19:22;27.2;;;22.9;;
64018;SDS011;66942;52.138;5.216;2023-02-10T03:20:58;28.0;;;21.9;;
64018;SDS011;66942;52.138;5.216;2023-02-10T03:24:11;24.3;;;21.1;;
64018;SDS011;66942;52.138;5.216;2023-02-10T03:25:47;24.0;;;20.5;;
64018;SDS011;66942;52.138;5.216;2023-02-10T03:27:23;31.4;;;26.6;;
64018;SDS011;66942;52.138;5.216;2023-02-10T03:30:38;21.1;;;19.0;;
64018;SDS011;66942;52.138;5.216;2023-02-10T03:32:14;23.9;;;21.4;;
64018;SDS011;66942;52.138;5.216;2023-02-10T03:33:50;24.8;;;22.1;;
64018;SDS011;66942;52.138;5.216;2023-02-10T03:35:27;28.3;;;25.1;;
64018;SDS011;66942;52.138;5.216;2023-02-10T03:38:39;28.7;;;24.1;;
64018;SDS011;66942;52.138;5.216;2023-02-10T03:40:16;34.9;;;27.1;;
64018;SDS011;66942;52.138;5.216;2023-02-10T03:41:53;34.31;;;29.0;;
64018;SDS011;66942;52.138;5.216;2023-02-10T03:45:06;27.0;;;24.0;;
64018;SDS011;66942;52.138;5.216;2023-02-10T03:46:43;32.9;;;26.5;;
64018;SDS011;66942;52.138;5.216;2023-02-10T03:48:19;24.3;;;21.7;;
64018;SDS011;66942;52.138;5.216;2023-02-10T03:51:31;25.8;;;23.0;;
64018;SDS011;66942;52.138;5.216;2023-02-10T03:53:08;28.1;;;23.9;;
64018;SDS011;66942;52.138;5.216;2023-02-10T03:54:44;26.4;;;23.3;;
64018;SDS011;66942;52.138;5.216;2023-02-10T03:56:20;25.7;;;22.1;;
64018;SDS011;66942;52.138;5.216;2023-02-10T03:59:33;25.9;;;23.1;;
64018;SDS011;66942;52.138;5.216;2023-02-10T04:01:10;41.5;;;32.3;;
64018;SDS011;66942;52.138;5.216;2023-02-10T04:02:48;41.5;;;32.6;;
64018;SDS011;66942;52.138;5.216;2023-02-10T04:06:01;29.2;;;26.1;;
64018;SDS011;66942;52.138;5.216;2023-02-10T04:07:37;26.4;;;23.6;;
64018;SDS011;66942;52.138;5.216;2023-02-10T04:09:14;36.6;;;29.2;;
64018;SDS011;66942;52.138;5.216;2023-02-10T04:12:26;25.8;;;23.0;;
64018;SDS011;66942;52.138;5.216;2023-02-10T04:14:03;29.0;;;25.0;;
64018;SDS011;66942;52.138;5.216;2023-02-10T04:15:39;25.5;;;22.9;;
64018;SDS011;66942;52.138;5.216;2023-02-10T04:17:15;24.3;;;21.9;;
64018;SDS011;66942;52.138;5.216;2023-02-10T04:20:27;27.8;;;25.0;;
64018;SDS011;66942;52.138;5.216;2023-02-10T04:22:03;29.9;;;26.7;;
64018;SDS011;66942;52.138;5.216;2023-02-10T04:23:40;34.21;;;30.5;;
64018;SDS011;66942;52.138;5.216;2023-02-10T04:26:52;33.5;;;28.9;;
64018;SDS011;66942;52.138;5.216;2023-02-10T04:28:28;27.7;;;24.7;;
64018;SDS011;66942;52.138;5.216;2023-02-10T04:30:06;27.7;;;24.7;;
64018;SDS011;66942;52.138;5.216;2023-02-10T04:33:20;30.8;;;27.5;;
64018;SDS011;66942;52.138;5.216;2023-02-10T04:34:57;30.5;;;26.0;;
64018;SDS011;66942;52.138;5.216;2023-02-10T04:36:33;37.71;;;31.3;;
64018;SDS011;66942;52.138;5.216;2023-02-10T04:38:09;47.2;;;35.9;;
64018;SDS011;66942;52.138;5.216;2023-02-10T04:41:22;43.6;;;34.81;;
64018;SDS011;66942;52.138;5.216;2023-02-10T04:42:59;47.4;;;37.31;;
64018;SDS011;66942;52.138;5.216;2023-02-10T04:44:35;44.0;;;33.6;;
64018;SDS011;66942;52.138;5.216;2023-02-10T04:47:49;33.5;;;28.2;;
64018;SDS011;66942;52.138;5.216;2023-02-10T04:49:26;31.0;;;27.0;;
64018;SDS011;66942;52.138;5.216;2023-02-10T04:51:05;31.1;;;27.6;;
64018;SDS011;66942;52.138;5.216;2023-02-10T04:54:19;29.5;;;26.4;;
64018;SDS011;66942;52.138;5.216;2023-02-10T04:55:56;35.4;;;30.3;;
64018;SDS011;66942;52.138;5.216;2023-02-10T04:57:32;31.9;;;28.4;;
64018;SDS011;66942;52.138;5.216;2023-02-10T04:59:08;35.71;;;31.1;;
64018;SDS011;66942;52.138;5.216;2023-02-10T05:02:21;34.71;;;30.4;;
64018;SDS011;66942;52.138;5.216;2023-02-10T05:03:57;28.0;;;25.3;;
64018;SDS011;66942;52.138;5.216;2023-02-10T05:05:33;41.8;;;32.8;;
64018;SDS011;66942;52.138;5.216;2023-02-10T05:08:49;35.6;;;29.6;;
64018;SDS011;66942;52.138;5.216;2023-02-10T05:10:25;34.4;;;29.7;;
64018;SDS011;66942;52.138;5.216;2023-02-10T05:12:03;27.8;;;25.0;;
64018;SDS011;66942;52.138;5.216;2023-02-10T05:13:40;34.0;;;30.5;;
64018;SDS011;66942;52.138;5.216;2023-02-10T05:16:54;35.21;;;30.6;;
64018;SDS011;66942;52.138;5.216;2023-02-10T05:18:30;33.71;;;30.0;;
64018;SDS011;66942;52.138;5.216;2023-02-10T05:20:08;42.9;;;34.4;;
64018;SDS011;66942;52.138;5.216;2023-02-10T05:23:22;42.0;;;34.71;;
64018;SDS011;66942;52.138;5.216;2023-02-10T05:24:58;41.5;;;34.4;;
64018;SDS011;66942;52.138;5.216;2023-02-10T05:26:34;32.1;;;28.8;;
64018;SDS011;66942;52.138;5.216;2023-02-10T05:29:46;30.5;;;27.2;;
64018;SDS011;66942;52.138;5.216;2023-02-10T05:31:22;30.6;;;27.4;;
64018;SDS011;66942;52.138;5.216;2023-02-10T05:32:58;34.81;;;30.3;;
64018;SDS011;66942;52.138;5.216;2023-02-10T05:34:35;35.71;;;31.8;;
64018;SDS011;66942;52.138;5.216;2023-02-10T05:37:47;32.71;;;29.2;;
64018;SDS011;66942;52.138;5.216;2023-02-10T05:39:23;40.31;;;34.9;;
64018;SDS011;66942;52.138;5.216;2023-02-10T05:41:00;46.6;;;37.4;;
64018;SDS011;66942;52.138;5.216;2023-02-10T05:44:13;38.0;;;33.9;;
64018;SDS011;66942;52.138;5.216;2023-02-10T05:45:49;35.9;;;32.0;;
64018;SDS011;66942;52.138;5.216;2023-02-10T05:47:25;33.0;;;29.5;;
64018;SDS011;66942;52.138;5.216;2023-02-10T05:50:39;32.3;;;28.8;;
64018;SDS011;66942;52.138;5.216;2023-02-10T05:52:16;33.6;;;30.1;;
64018;SDS011;66942;52.138;5.216;2023-02-10T05:53:53;33.9;;;30.3;;
64018;SDS011;66942;52.138;5.216;2023-02-10T05:55:30;38.9;;;34.0;;
64018;SDS011;66942;52.138;5.216;2023-02-10T05:58:43;39.1;;;34.0;;
64018;SDS011;66942;52.138;5.216;2023-02-10T06:00:19;43.4;;;38.21;;
64018;SDS011;66942;52.138;5.216;2023-02-10T06:01:56;49.7;;;40.81;;
64018;SDS011;66942;52.138;5.216;2023-02-10T06:05:08;43.5;;;36.71;;
64018;SDS011;66942;52.138;5.216;2023-02-10T06:06:46;37.6;;;33.5;;
64018;SDS011;66942;52.138;5.216;2023-02-10T06:08:23;37.1;;;33.21;;
64018;SDS011;66942;52.138;5.216;2023-02-10T06:11:36;38.21;;;34.0;;
64018;SDS011;66942;52.138;5.216;2023-02-10T06:13:12;37.9;;;33.9;;
64018;SDS011;66942;52.138;5.216;2023-02-10T06:14:48;38.71;;;34.4;;
64018;SDS011;66942;52.138;5.216;2023-02-10T06:16:24;50.5;;;39.6;;
64018;SDS011;66942;52.138;5.216;2023-02-10T06:19:38;58.5;;;45.8;;
64018;SDS011;66942;52.138;5.216;2023-02-10T06:21:15;41.1;;;36.6;;
64018;SDS011;66942;52.138;5.216;2023-02-10T06:22:52;46.6;;;39.4;;
64018;SDS011;66942;52.138;5.216;2023-02-10T06:26:04;37.21;;;33.21;;
64018;SDS011;66942;52.138;5.216;2023-02-10T06:27:40;37.4;;;33.3;;
64018;SDS011;66942;52.138;5.216;2023-02-10T06:29:16;42.8;;;36.9;;
64018;SDS011;66942;52.138;5.216;2023-02-10T06:32:30;42.8;;;38.1;;
64018;SDS011;66942;52.138;5.216;2023-02-10T06:34:08;43.7;;;37.5;;
64018;SDS011;66942;52.138;5.216;2023-02-10T06:35:45;42.9;;;37.1;;
64018;SDS011;66942;52.138;5.216;2023-02-10T06:37:22;43.7;;;38.1;;
64018;SDS011;66942;52.138;5.216;2023-02-10T06:40:36;48.4;;;39.0;;
64018;SDS011;66942;52.138;5.216;2023-02-10T06:42:12;50.0;;;39.4;;
64018;SDS011;66942;52.138;5.216;2023-02-10T06:43:48;45.0;;;37.9;;
64018;SDS011;66942;52.138;5.216;2023-02-10T06:47:00;36.71;;;32.6;;
64018;SDS011;66942;52.138;5.216;2023-02-10T06:48:36;43.7;;;39.0;;
64018;SDS011;66942;52.138;5.216;2023-02-10T06:50:13;41.1;;;35.6;;
64018;SDS011;66942;52.138;5.216;2023-02-10T06:53:26;45.7;;;40.71;;
64018;SDS011;66942;52.138;5.216;2023-02-10T06:55:02;62.5;;;47.5;;
64018;SDS011;66942;52.138;5.216;2023-02-10T06:56:39;69.0;;;50.4;;
64018;SDS011;66942;52.138;5.216;2023-02-10T06:58:16;50.4;;;42.3;;
64018;SDS011;66942;52.138;5.216;2023-02-10T07:01:29;63.5;;;47.0;;
64018;SDS011;66942;52.138;5.216;2023-02-10T07:03:05;43.5;;;38.1;;
64018;SDS011;66942;52.138;5.216;2023-02-10T07:04:41;44.9;;;38.6;;
64018;SDS011;66942;52.138;5.216;2023-02-10T07:07:55;63.1;;;47.7;;
64018;SDS011;66942;52.138;5.216;2023-02-10T07:09:32;40.21;;;35.9;;
64018;SDS011;66942;52.138;5.216;2023-02-10T07:11:08;43.7;;;38.5;;
64018;SDS011;66942;52.138;5.216;2023-02-10T07:14:20;38.5;;;34.31;;
64018;SDS011;66942;52.138;5.216;2023-02-10T07:15:56;39.5;;;35.4;;
64018;SDS011;66942;52.138;5.216;2023-02-10T07:17:32;47.5;;;39.81;;
64018;SDS011;66942;52.138;5.216;2023-02-10T07:20:45;53.3;;;43.0;;
64018;SDS011;66942;52.138;5.216;2023-02-10T07:22:21;48.9;;;41.8;;
64018;SDS011;66942;52.138;5.216;2023-02-10T07:23:57;45.8;;;39.31;;
64018;SDS011;66942;52.138;5.216;2023-02-10T07:25:33;45.6;;;40.6;;
64018;SDS011;66942;52.138;5.216;2023-02-10T07:28:46;42.1;;;35.9;;
64018;SDS011;66942;52.138;5.216;2023-02-10T07:30:23;47.3;;;40.21;;
64018;SDS011;66942;52.138;5.216;2023-02-10T07:32:00;45.6;;;40.0;;
64018;SDS011;66942;52.138;5.216;2023-02-10T07:35:13;66.7;;;50.0;;
64018;SDS011;66942;52.138;5.216;2023-02-10T07:36:53;63.9;;;50.2;;
64018;SDS011;66942;52.138;5.216;2023-02-10T07:38:30;72.0;;;54.0;;
64018;SDS011;66942;52.138;5.216;2023-02-10T07:40:08;53.8;;;43.9;;
64018;SDS011;66942;52.138;5.216;2023-02-10T07:43:21;43.1;;;38.21;;
64018;SDS011;66942;52.138;5.216;2023-02-10T07:44:57;50.9;;;42.2;;
64018;SDS011;66942;52.138;5.216;2023-02-10T07:46:34;41.1;;;36.6;;
64018;SDS011;66942;52.138;5.216;2023-02-10T07:49:47;38.5;;;34.6;;
64018;SDS011;66942;52.138;5.216;2023-02-10T07:51:24;42.8;;;38.31;;
64018;SDS011;66942;52.138;5.216;2023-02-10T07:53:00;49.2;;;42.8;;
64018;SDS011;66942;52.138;5.216;2023-02-10T07:56:13;66.0;;;48.1;;
64018;SDS011;66942;52.138;5.216;2023-02-10T07:57:50;58.3;;;46.5;;
64018;SDS011;66942;52.138;5.216;2023-02-10T07:59:27;39.21;;;35.0;;
64018;SDS011;66942;52.138;5.216;2023-02-10T08:01:05;39.5;;;35.4;;
64018;SDS011;66942;52.138;5.216;2023-02-10T08:04:19;41.5;;;37.21;;
64018;SDS011;66942;52.138;5.216;2023-02-10T08:05:55;43.1;;;38.6;;
64018;SDS011;66942;52.138;5.216;2023-02-10T08:07:32;43.5;;;38.81;;
64018;SDS011;66942;52.138;5.216;2023-02-10T08:10:47;41.8;;;37.5;;
64018;SDS011;66942;52.138;5.216;2023-02-10T08:12:23;47.3;;;42.2;;
64018;SDS011;66942;52.138;5.216;2023-02-10T08:14:00;47.9;;;40.6;;
64018;SDS011;66942;52.138;5.216;2023-02-10T08:15:38;41.3;;;37.1;;
64018;SDS011;66942;52.138;5.216;2023-02-10T08:18:50;36.81;;;33.21;;
64018;SDS011;66942;52.138;5.216;2023-02-10T08:20:27;43.3;;;38.71;;
64018;SDS011;66942;52.138;5.216;2023-02-10T08:22:03;42.3;;;37.9;;
64018;SDS011;66942;52.138;5.216;2023-02-10T08:25:16;42.1;;;37.81;;
64018;SDS011;66942;52.138;5.216;2023-02-10T08:26:52;44.8;;;39.9;;
64018;SDS011;66942;52.138;5.216;2023-02-10T08:28:28;42.1;;;37.81;;
64018;SDS011;66942;52.138;5.216;2023-02-10T08:31:43;42.5;;;38.21;;
64018;SDS011;66942;52.138;5.216;2023-02-10T08:33:19;40.0;;;35.9;;
64018;SDS011;66942;52.138;5.216;2023-02-10T08:34:55;41.3;;;37.1;;
64018;SDS011;66942;52.138;5.216;2023-02-10T08:38:09;40.81;;;36.71;;
64018;SDS011;66942;52.138;5.216;2023-02-10T08:39:45;48.0;;;42.8;;
64018;SDS011;66942;52.138;5.216;2023-02-10T08:41:21;37.4;;;33.71;;
64018;SDS011;66942;52.138;5.216;2023-02-10T08:42:57;37.21;;;33.6;;
64018;SDS011;66942;52.138;5.216;2023-02-10T08:46:11;42.7;;;38.5;;
64018;SDS011;66942;52.138;5.216;2023-02-10T08:47:48;37.0;;;33.4;;
64018;SDS011;66942;52.138;5.216;2023-02-10T08:49:24;38.1;;;34.31;;
64018;SDS011;66942;52.138;5.216;2023-02-10T08:52:43;38.71;;;35.0;;
64018;SDS011;66942;52.138;5.216;2023-02-10T08:54:20;36.6;;;33.21;;
64018;SDS011;66942;52.138;5.216;2023-02-10T08:55:58;40.81;;;37.0;;
64018;SDS011;66942;52.138;5.216;2023-02-10T08:57:38;42.1;;;38.0;;
64018;SDS011;66942;52.138;5.216;2023-02-10T09:00:52;37.9;;;34.31;;
64018;SDS011;66942;52.138;5.216;2023-02-10T09:02:30;38.4;;;34.6;;
64018;SDS011;66942;52.138;5.216;2023-02-10T09:04:07;38.1;;;34.5;;
64018;SDS011;66942;52.138;5.216;2023-02-10T09:07:21;37.9;;;34.1;;
64018;SDS011;66942;52.138;5.216;2023-02-10T09:09:00;38.9;;;34.9;;
64018;SDS011;66942;52.138;5.216;2023-02-10T09:10:36;38.81;;;35.0;;
64018;SDS011;66942;52.138;5.216;2023-02-10T09:12:14;39.9;;;36.0;;
64018;SDS011;66942;52.138;5.216;2023-02-10T09:15:28;38.9;;;35.31;;
64018;SDS011;66942;52.138;5.216;2023-02-10T09:17:04;39.5;;;35.81;;
64018;SDS011;66942;52.138;5.216;2023-02-10T09:18:41;36.5;;;33.1;;
64018;SDS011;66942;52.138;5.216;2023-02-10T09:21:55;40.6;;;36.81;;
64018;SDS011;66942;52.138;5.216;2023-02-10T09:23:32;38.31;;;34.4;;
64018;SDS011;66942;52.138;5.216;2023-02-10T09:25:08;38.4;;;34.71;;
64018;SDS011;66942;52.138;5.216;2023-02-10T09:28:21;38.1;;;34.5;;
64018;SDS011;66942;52.138;5.216;2023-02-10T09:29:59;39.31;;;35.5;;
64018;SDS011;66942;52.138;5.216;2023-02-10T09:31:35;37.5;;;34.0;;
64018;SDS011;66942;52.138;5.216;2023-02-10T09:33:11;37.9;;;34.21;;
64018;SDS011;66942;52.138;5.216;2023-02-10T09:36:24;39.9;;;36.21;;
64018;SDS011;66942;52.138;5.216;2023-02-10T09:38:00;38.31;;;34.81;;
64018;SDS011;66942;52.138;5.216;2023-02-10T09:39:38;38.4;;;35.0;;
64018;SDS011;66942;52.138;5.216;2023-02-10T09:43:11;38.31;;;34.81;;
64018;SDS011;66942;52.138;5.216;2023-02-10T09:45:05;41.3;;;37.5;;
64018;SDS011;66942;52.138;5.216;2023-02-10T09:46:52;36.81;;;33.3;;
64018;SDS011;66942;52.138;5.216;2023-02-10T09:49:00;34.0;;;30.8;;
64018;SDS011;66942;52.138;5.216;2023-02-10T09:50:52;34.0;;;30.8;;
64018;SDS011;66942;52.138;5.216;2023-02-10T09:52:41;32.0;;;29.1;;
64018;SDS011;66942;52.138;5.216;2023-02-10T09:54:31;34.31;;;31.1;;
64018;SDS011;66942;52.138;5.216;2023-02-10T09:56:11;35.1;;;32.0;;
64018;SDS011;66942;52.138;5.216;2023-02-10T09:59:35;41.2;;;37.31;;
64018;SDS011;66942;52.138;5.216;2023-02-10T10:01:15;45.2;;;41.1;;
64018;SDS011;66942;52.138;5.216;2023-02-10T10:02:57;95.6;;;85.9;;
64018;SDS011;66942;52.138;5.216;2023-02-10T10:04:36;34.1;;;31.1;;
64018;SDS011;66942;52.138;5.216;2023-02-10T10:07:58;37.4;;;33.9;;
64018;SDS011;66942;52.138;5.216;2023-02-10T10:09:37;55.4;;;50.0;;
64018;SDS011;66942;52.138;5.216;2023-02-10T10:11:21;55.7;;;51.0;;
64018;SDS011;66942;52.138;5.216;2023-02-10T10:13:02;40.1;;;36.71;;
64018;SDS011;66942;52.138;5.216;2023-02-10T10:16:19;36.81;;;33.5;;
64018;SDS011;66942;52.138;5.216;2023-02-10T10:18:08;34.31;;;30.9;;
64018;SDS011;66942;52.138;5.216;2023-02-10T10:19:55;59.2;;;53.4;;
64018;SDS011;66942;52.138;5.216;2023-02-10T10:21:46;36.81;;;33.4;;
64018;SDS011;66942;52.138;5.216;2023-02-10T10:23:36;35.4;;;32.3;;
64018;SDS011;66942;52.138;5.216;2023-02-10T10:25:29;37.4;;;33.9;;
64018;SDS011;66942;52.138;5.216;2023-02-10T10:28:18;33.9;;;30.9;;
64018;SDS011;66942;52.138;5.216;2023-02-10T10:30:06;36.21;;;32.9;;
64018;SDS011;66942;52.138;5.216;2023-02-10T10:31:48;35.4;;;31.9;;
64018;SDS011;66942;52.138;5.216;2023-02-10T10:35:17;34.9;;;31.5;;
64018;SDS011;66942;52.138;5.216;2023-02-10T10:36:58;31.5;;;28.4;;
64018;SDS011;66942;52.138;5.216;2023-02-10T10:38:38;32.21;;;29.1;;
64018;SDS011;66942;52.138;5.216;2023-02-10T10:40:22;31.9;;;28.7;;
64018;SDS011;66942;52.138;5.216;2023-02-10T10:43:55;32.8;;;29.8;;
64018;SDS011;66942;52.138;5.216;2023-02-10T10:45:34;31.1;;;28.1;;
64018;SDS011;66942;52.138;5.216;2023-02-10T10:47:18;31.0;;;27.7;;
64018;SDS011;66942;52.138;5.216;2023-02-10T10:49:01;34.1;;;30.9;;
64018;SDS011;66942;52.138;5.216;2023-02-10T10:50:38;35.31;;;31.9;;
64018;SDS011;66942;52.138;5.216;2023-02-10T10:54:02;35.31;;;32.1;;
64018;SDS011;66942;52.138;5.216;2023-02-10T10:55:43;32.4;;;29.2;;
64018;SDS011;66942;52.138;5.216;2023-02-10T10:57:25;29.9;;;26.9;;
64018;SDS011;66942;52.138;5.216;2023-02-10T10:59:06;29.8;;;27.0;;
64018;SDS011;66942;52.138;5.216;2023-02-10T11:02:27;32.3;;;29.2;;
64018;SDS011;66942;52.138;5.216;2023-02-10T11:04:04;30.4;;;27.3;;
64018;SDS011;66942;52.138;5.216;2023-02-10T11:05:43;30.2;;;27.3;;
64018;SDS011;66942;52.138;5.216;2023-02-10T11:07:34;29.9;;;27.0;;
64018;SDS011;66942;52.138;5.216;2023-02-10T11:11:02;26.8;;;24.2;;
64018;SDS011;66942;52.138;5.216;2023-02-10T11:12:42;26.8;;;24.2;;
64018;SDS011;66942;52.138;5.216;2023-02-10T11:14:23;23.4;;;21.0;;
64018;SDS011;66942;52.138;5.216;2023-02-10T11:16:03;23.3;;;21.0;;
64018;SDS011;66942;52.138;5.216;2023-02-10T11:17:42;23.8;;;20.2;;
64018;SDS011;66942;52.138;5.216;2023-02-10T11:21:03;23.5;;;21.2;;
64018;SDS011;66942;52.138;5.216;2023-02-10T11:22:42;23.0;;;20.5;;
64018;SDS011;66942;52.138;5.216;2023-02-10T11:24:21;23.2;;;19.0;;
64018;SDS011;66942;52.138;5.216;2023-02-10T11:26:01;22.4;;;19.2;;
64018;SDS011;66942;52.138;5.216;2023-02-10T11:29:26;20.7;;;18.61;;
64018;SDS011;66942;52.138;5.216;2023-02-10T11:31:06;21.0;;;18.7;;
64018;SDS011;66942;52.138;5.216;2023-02-10T11:33:04;20.8;;;18.61;;
64018;SDS011;66942;52.138;5.216;2023-02-10T11:34:54;24.1;;;19.61;;
64018;SDS011;66942;52.138;5.216;2023-02-10T11:36:34;21.2;;;18.2;;
64018;SDS011;66942;52.138;5.216;2023-02-10T11:40:00;33.4;;;29.7;;
64018;SDS011;66942;52.138;5.216;2023-02-10T11:41:39;22.9;;;20.5;;
64018;SDS011;66942;52.138;5.216;2023-02-10T11:43:16;21.3;;;18.11;;
64018;SDS011;66942;52.138;5.216;2023-02-10T11:44:55;19.7;;;17.41;;
64018;SDS011;66942;52.138;5.216;2023-02-10T11:48:13;20.3;;;18.2;;
64018;SDS011;66942;52.138;5.216;2023-02-10T11:49:52;19.11;;;17.11;;
64018;SDS011;66942;52.138;5.216;2023-02-10T11:51:30;19.5;;;17.0;;
64018;SDS011;66942;52.138;5.216;2023-02-10T11:54:57;20.6;;;17.2;;
64018;SDS011;66942;52.138;5.216;2023-02-10T11:59:16;18.2;;;16.11;;
64018;SDS011;66942;52.138;5.216;2023-02-10T12:01:05;19.7;;;17.11;;
64018;SDS011;66942;52.138;5.216;2023-02-10T12:06:24;23.5;;;19.41;;
64018;SDS011;66942;52.138;5.216;2023-02-10T12:08:13;20.41;;;17.91;;
64018;SDS011;66942;52.138;5.216;2023-02-10T12:09:59;22.3;;;18.8;;
64018;SDS011;66942;52.138;5.216;2023-02-10T12:13:32;21.3;;;17.91;;
64018;SDS011;66942;52.138;5.216;2023-02-10T12:15:24;23.5;;;19.0;;
64018;SDS011;66942;52.138;5.216;2023-02-10T12:17:20;19.91;;;17.2;;
64018;SDS011;66942;52.138;5.216;2023-02-10T12:19:06;27.8;;;22.5;;
64018;SDS011;66942;52.138;5.216;2023-02-10T12:20:56;21.1;;;17.8;;
64018;SDS011;66942;52.138;5.216;2023-02-10T12:22:53;20.41;;;18.11;;
64018;SDS011;66942;52.138;5.216;2023-02-10T12:25:49;24.4;;;18.41;;
64018;SDS011;66942;52.138;5.216;2023-02-10T12:27:37;19.5;;;17.41;;
64018;SDS011;66942;52.138;5.216;2023-02-10T12:29:27;20.6;;;18.5;;
64018;SDS011;66942;52.138;5.216;2023-02-10T12:31:16;24.7;;;20.41;;
64018;SDS011;66942;52.138;5.216;2023-02-10T12:33:07;24.3;;;20.2;;
64018;SDS011;66942;52.138;5.216;2023-02-10T12:35:15;23.7;;;19.11;;
64018;SDS011;66942;52.138;5.216;2023-02-10T12:39:00;22.5;;;18.91;;
64018;SDS011;66942;52.138;5.216;2023-02-10T12:40:49;23.4;;;20.2;;